sensor_id;sensor_type;location;lat;lon;timestamp;temperature;humidity
75964;DHT22;65820;44.726;37.764;2022-12-07T00:12:50;18.36;50.22
75964;DHT22;65820;44.726;37.764;2022-12-07T00:13:54;18.35;50.25
75964;DHT22;65820;44.726;37.764;2022-12-07T00:14:55;18.34;50.24
75964;DHT22;65820;44.726;37.764;2022-12-07T00:21:09;18.34;50.29
75964;DHT22;65820;44.726;37.764;2022-12-07T00:22:21;18.35;50.24
75964;DHT22;65820;44.726;37.764;2022-12-07T00:23:28;18.35;50.26
75964;DHT22;65820;44.726;37.764;2022-12-07T00:24:34;18.34;50.27
75964;DHT22;65820;44.726;37.764;2022-12-07T00:25:40;18.33;50.26
75964;DHT22;65820;44.726;37.764;2022-12-07T00:26:48;18.35;50.24
75964;DHT22;65820;44.726;37.764;2022-12-07T00:33:56;18.37;50.21
75964;DHT22;65820;44.726;37.764;2022-12-07T00:48:47;18.37;50.29
75964;DHT22;65820;44.726;37.764;2022-12-07T00:49:49;18.37;50.31
75964;DHT22;65820;44.726;37.764;2022-12-07T01:36:51;18.29;50.55
75964;DHT22;65820;44.726;37.764;2022-12-07T01:44:19;18.30;50.58
75964;DHT22;65820;44.726;37.764;2022-12-07T02:14:40;18.29;50.60
75964;DHT22;65820;44.726;37.764;2022-12-07T02:17:21;18.29;50.59
75964;DHT22;65820;44.726;37.764;2022-12-07T02:18:53;18.30;50.61
75964;DHT22;65820;44.726;37.764;2022-12-07T02:21:38;18.32;50.70
75964;DHT22;65820;44.726;37.764;2022-12-07T02:34:54;18.33;50.57
75964;DHT22;65820;44.726;37.764;2022-12-07T03:04:02;18.32;50.74
75964;DHT22;65820;44.726;37.764;2022-12-07T03:05:35;18.28;50.79
75964;DHT22;65820;44.726;37.764;2022-12-07T03:10:28;18.32;50.78
75964;DHT22;65820;44.726;37.764;2022-12-07T03:14:33;18.30;50.77
75964;DHT22;65820;44.726;37.764;2022-12-07T03:16:49;18.32;50.76
75964;DHT22;65820;44.726;37.764;2022-12-07T03:19:26;18.33;50.78
75964;DHT22;65820;44.726;37.764;2022-12-07T03:20:29;18.33;50.80
75964;DHT22;65820;44.726;37.764;2022-12-07T03:21:38;18.33;50.69
75964;DHT22;65820;44.726;37.764;2022-12-07T03:22:41;18.34;50.75
75964;DHT22;65820;44.726;37.764;2022-12-07T03:23:44;18.35;50.74
75964;DHT22;65820;44.726;37.764;2022-12-07T03:26:59;18.35;50.67
75964;DHT22;65820;44.726;37.764;2022-12-07T03:34:21;18.37;49.29
75964;DHT22;65820;44.726;37.764;2022-12-07T03:35:30;18.37;49.02
75964;DHT22;65820;44.726;37.764;2022-12-07T03:36:42;18.36;48.56
75964;DHT22;65820;44.726;37.764;2022-12-07T03:39:24;18.34;48.51
75964;DHT22;65820;44.726;37.764;2022-12-07T03:41:33;18.32;48.55
75964;DHT22;65820;44.726;37.764;2022-12-07T03:42:36;18.33;48.60
75964;DHT22;65820;44.726;37.764;2022-12-07T03:45:43;18.28;48.85
75964;DHT22;65820;44.726;37.764;2022-12-07T03:48:18;18.26;48.98
75964;DHT22;65820;44.726;37.764;2022-12-07T03:51:27;18.23;49.72
75964;DHT22;65820;44.726;37.764;2022-12-07T03:52:42;18.21;49.49
75964;DHT22;65820;44.726;37.764;2022-12-07T03:54:19;18.21;49.64
75964;DHT22;65820;44.726;37.764;2022-12-07T04:04:47;18.12;50.16
75964;DHT22;65820;44.726;37.764;2022-12-07T04:09:39;18.08;50.71
75964;DHT22;65820;44.726;37.764;2022-12-07T04:10:40;18.09;50.98
75964;DHT22;65820;44.726;37.764;2022-12-07T04:11:41;18.08;50.90
75964;DHT22;65820;44.726;37.764;2022-12-07T04:12:43;18.07;50.97
75964;DHT22;65820;44.726;37.764;2022-12-07T04:13:44;18.09;50.86
75964;DHT22;65820;44.726;37.764;2022-12-07T04:15:04;18.08;51.15
75964;DHT22;65820;44.726;37.764;2022-12-07T04:16:08;18.10;51.66
75964;DHT22;65820;44.726;37.764;2022-12-07T04:17:09;18.11;51.98
75964;DHT22;65820;44.726;37.764;2022-12-07T04:19:51;18.13;52.04
75964;DHT22;65820;44.726;37.764;2022-12-07T04:20:52;18.13;52.43
75964;DHT22;65820;44.726;37.764;2022-12-07T04:25:02;18.19;52.54
75964;DHT22;65820;44.726;37.764;2022-12-07T04:26:03;18.20;52.45
75964;DHT22;65820;44.726;37.764;2022-12-07T04:30:58;18.24;52.40
75964;DHT22;65820;44.726;37.764;2022-12-07T04:32:55;18.26;52.47
75964;DHT22;65820;44.726;37.764;2022-12-07T04:33:57;18.26;52.54
75964;DHT22;65820;44.726;37.764;2022-12-07T04:34:58;18.27;52.55
75964;DHT22;65820;44.726;37.764;2022-12-07T04:44:36;18.33;52.50
75964;DHT22;65820;44.726;37.764;2022-12-07T04:45:38;18.32;52.50
75964;DHT22;65820;44.726;37.764;2022-12-07T04:59:15;18.36;52.40
75964;DHT22;65820;44.726;37.764;2022-12-07T05:00:16;18.35;52.41
75964;DHT22;65820;44.726;37.764;2022-12-07T05:04:05;18.36;52.43
75964;DHT22;65820;44.726;37.764;2022-12-07T05:15:16;18.38;52.43
75964;DHT22;65820;44.726;37.764;2022-12-07T05:24:01;18.40;52.40
75964;DHT22;65820;44.726;37.764;2022-12-07T05:25:03;18.40;52.42
75964;DHT22;65820;44.726;37.764;2022-12-07T05:50:06;18.44;52.28
75964;DHT22;65820;44.726;37.764;2022-12-07T06:03:38;18.44;52.18
75964;DHT22;65820;44.726;37.764;2022-12-07T06:04:44;18.46;52.16
75964;DHT22;65820;44.726;37.764;2022-12-07T06:31:00;18.44;52.21
75964;DHT22;65820;44.726;37.764;2022-12-07T06:32:01;18.46;52.20
75964;DHT22;65820;44.726;37.764;2022-12-07T06:33:03;18.46;52.20
75964;DHT22;65820;44.726;37.764;2022-12-07T07:14:24;18.51;52.11
75964;DHT22;65820;44.726;37.764;2022-12-07T07:20:58;18.53;51.95
75964;DHT22;65820;44.726;37.764;2022-12-07T07:22:00;18.53;52.11
75964;DHT22;65820;44.726;37.764;2022-12-07T07:23:01;18.56;51.89
75964;DHT22;65820;44.726;37.764;2022-12-07T07:24:03;18.54;52.07
75964;DHT22;65820;44.726;37.764;2022-12-07T07:25:04;18.55;52.09
75964;DHT22;65820;44.726;37.764;2022-12-07T07:26:07;18.56;52.02
75964;DHT22;65820;44.726;37.764;2022-12-07T07:27:09;18.56;52.04
75964;DHT22;65820;44.726;37.764;2022-12-07T07:28:10;18.56;52.01
75964;DHT22;65820;44.726;37.764;2022-12-07T07:29:12;18.57;51.98
75964;DHT22;65820;44.726;37.764;2022-12-07T07:31:24;18.59;51.97
75964;DHT22;65820;44.726;37.764;2022-12-07T07:32:25;18.61;51.91
75964;DHT22;65820;44.726;37.764;2022-12-07T07:33:26;18.62;51.88
75964;DHT22;65820;44.726;37.764;2022-12-07T07:34:28;18.63;51.92
75964;DHT22;65820;44.726;37.764;2022-12-07T07:35:31;18.63;51.87
75964;DHT22;65820;44.726;37.764;2022-12-07T07:36:32;18.63;51.79
75964;DHT22;65820;44.726;37.764;2022-12-07T07:41:38;18.66;51.73
75964;DHT22;65820;44.726;37.764;2022-12-07T07:42:39;18.67;51.73
75964;DHT22;65820;44.726;37.764;2022-12-07T07:43:41;18.67;51.69
75964;DHT22;65820;44.726;37.764;2022-12-07T07:46:08;18.67;51.68
75964;DHT22;65820;44.726;37.764;2022-12-07T07:47:09;18.68;51.64
75964;DHT22;65820;44.726;37.764;2022-12-07T07:50:47;18.68;51.55
75964;DHT22;65820;44.726;37.764;2022-12-07T07:51:49;18.69;51.60
75964;DHT22;65820;44.726;37.764;2022-12-07T07:52:50;18.70;51.57
75964;DHT22;65820;44.726;37.764;2022-12-07T07:53:52;18.70;51.57
75964;DHT22;65820;44.726;37.764;2022-12-07T07:54:53;18.71;51.57
75964;DHT22;65820;44.726;37.764;2022-12-07T07:55:55;18.73;51.60
75964;DHT22;65820;44.726;37.764;2022-12-07T07:56:56;18.72;51.53
75964;DHT22;65820;44.726;37.764;2022-12-07T07:57:57;18.72;51.52
75964;DHT22;65820;44.726;37.764;2022-12-07T07:58:59;18.74;51.50
75964;DHT22;65820;44.726;37.764;2022-12-07T08:00:00;18.73;51.52
75964;DHT22;65820;44.726;37.764;2022-12-07T08:01:08;18.74;51.57
75964;DHT22;65820;44.726;37.764;2022-12-07T08:02:14;18.74;51.47
75964;DHT22;65820;44.726;37.764;2022-12-07T08:03:16;18.76;51.62
75964;DHT22;65820;44.726;37.764;2022-12-07T08:04:18;18.74;51.49
75964;DHT22;65820;44.726;37.764;2022-12-07T08:05:19;18.74;51.46
75964;DHT22;65820;44.726;37.764;2022-12-07T08:06:21;18.76;51.52
75964;DHT22;65820;44.726;37.764;2022-12-07T08:10:03;18.77;51.49
75964;DHT22;65820;44.726;37.764;2022-12-07T08:12:01;18.78;51.40
75964;DHT22;65820;44.726;37.764;2022-12-07T08:13:03;18.79;51.36
75964;DHT22;65820;44.726;37.764;2022-12-07T08:14:16;18.78;51.38
75964;DHT22;65820;44.726;37.764;2022-12-07T08:16:07;18.78;51.36
75964;DHT22;65820;44.726;37.764;2022-12-07T08:17:13;18.80;51.40
75964;DHT22;65820;44.726;37.764;2022-12-07T08:18:14;18.79;51.41
75964;DHT22;65820;44.726;37.764;2022-12-07T08:19:16;18.79;51.27
75964;DHT22;65820;44.726;37.764;2022-12-07T08:20:18;18.80;51.35
75964;DHT22;65820;44.726;37.764;2022-12-07T08:32:19;18.77;51.53
75964;DHT22;65820;44.726;37.764;2022-12-07T08:33:21;18.77;51.48
75964;DHT22;65820;44.726;37.764;2022-12-07T08:37:03;18.77;51.43
75964;DHT22;65820;44.726;37.764;2022-12-07T08:38:04;18.76;51.51
75964;DHT22;65820;44.726;37.764;2022-12-07T08:41:08;18.77;51.52
75964;DHT22;65820;44.726;37.764;2022-12-07T08:47:21;18.77;51.57
75964;DHT22;65820;44.726;37.764;2022-12-07T08:48:22;18.78;51.59
75964;DHT22;65820;44.726;37.764;2022-12-07T08:50:28;18.77;51.56
75964;DHT22;65820;44.726;37.764;2022-12-07T08:51:30;18.76;51.56
75964;DHT22;65820;44.726;37.764;2022-12-07T08:52:32;18.77;51.53
75964;DHT22;65820;44.726;37.764;2022-12-07T09:04:55;18.78;51.64
75964;DHT22;65820;44.726;37.764;2022-12-07T09:05:57;18.77;51.62
75964;DHT22;65820;44.726;37.764;2022-12-07T09:06:58;18.77;51.62
75964;DHT22;65820;44.726;37.764;2022-12-07T09:08:01;18.77;51.67
75964;DHT22;65820;44.726;37.764;2022-12-07T09:35:28;18.73;51.95
75964;DHT22;65820;44.726;37.764;2022-12-07T09:36:30;18.73;51.99
75964;DHT22;65820;44.726;37.764;2022-12-07T09:39:56;18.72;51.88
75964;DHT22;65820;44.726;37.764;2022-12-07T09:46:13;18.74;52.02
75964;DHT22;65820;44.726;37.764;2022-12-07T09:48:43;18.77;51.95
75964;DHT22;65820;44.726;37.764;2022-12-07T09:52:44;18.77;51.88
75964;DHT22;65820;44.726;37.764;2022-12-07T09:53:47;18.76;52.04
75964;DHT22;65820;44.726;37.764;2022-12-07T09:54:50;18.77;51.96
75964;DHT22;65820;44.726;37.764;2022-12-07T09:55:51;18.78;51.88
75964;DHT22;65820;44.726;37.764;2022-12-07T09:56:53;18.78;51.87
75964;DHT22;65820;44.726;37.764;2022-12-07T10:00:03;18.80;51.87
75964;DHT22;65820;44.726;37.764;2022-12-07T10:02:37;18.80;51.98
75964;DHT22;65820;44.726;37.764;2022-12-07T10:03:40;18.80;51.86
75964;DHT22;65820;44.726;37.764;2022-12-07T10:04:44;18.80;51.82
75964;DHT22;65820;44.726;37.764;2022-12-07T10:05:48;18.81;51.86
75964;DHT22;65820;44.726;37.764;2022-12-07T10:06:50;18.81;51.87
75964;DHT22;65820;44.726;37.764;2022-12-07T10:07:54;18.81;52.00
75964;DHT22;65820;44.726;37.764;2022-12-07T10:08:55;18.83;51.82
75964;DHT22;65820;44.726;37.764;2022-12-07T10:09:57;18.83;51.82
75964;DHT22;65820;44.726;37.764;2022-12-07T10:13:49;18.85;51.75
75964;DHT22;65820;44.726;37.764;2022-12-07T10:39:28;18.84;52.03
75964;DHT22;65820;44.726;37.764;2022-12-07T10:40:35;18.84;51.95
75964;DHT22;65820;44.726;37.764;2022-12-07T10:42:40;18.82;51.97
75964;DHT22;65820;44.726;37.764;2022-12-07T10:43:50;18.83;52.03
75964;DHT22;65820;44.726;37.764;2022-12-07T10:45:23;18.83;52.05
75964;DHT22;65820;44.726;37.764;2022-12-07T10:51:54;18.85;52.01
75964;DHT22;65820;44.726;37.764;2022-12-07T10:53:45;18.86;52.03
75964;DHT22;65820;44.726;37.764;2022-12-07T11:00:00;18.86;51.91
75964;DHT22;65820;44.726;37.764;2022-12-07T11:01:27;18.87;51.87
75964;DHT22;65820;44.726;37.764;2022-12-07T11:07:00;18.88;51.90
75964;DHT22;65820;44.726;37.764;2022-12-07T11:09:41;18.87;51.85
75964;DHT22;65820;44.726;37.764;2022-12-07T11:11:26;18.89;51.86
75964;DHT22;65820;44.726;37.764;2022-12-07T11:15:29;18.88;51.82
75964;DHT22;65820;44.726;37.764;2022-12-07T11:16:56;18.88;51.87
75964;DHT22;65820;44.726;37.764;2022-12-07T11:18:26;18.91;51.82
75964;DHT22;65820;44.726;37.764;2022-12-07T11:20:34;18.89;52.01
75964;DHT22;65820;44.726;37.764;2022-12-07T11:22:54;18.91;51.92
75964;DHT22;65820;44.726;37.764;2022-12-07T11:24:10;18.91;51.84
75964;DHT22;65820;44.726;37.764;2022-12-07T11:25:41;18.92;51.79
75964;DHT22;65820;44.726;37.764;2022-12-07T11:38:15;18.94;52.14
75964;DHT22;65820;44.726;37.764;2022-12-07T11:39:39;18.93;52.10
75964;DHT22;65820;44.726;37.764;2022-12-07T11:40:50;18.95;52.05
75964;DHT22;65820;44.726;37.764;2022-12-07T11:41:52;18.95;52.04
75964;DHT22;65820;44.726;37.764;2022-12-07T11:42:58;18.95;52.13
75964;DHT22;65820;44.726;37.764;2022-12-07T11:50:40;18.95;52.07
75964;DHT22;65820;44.726;37.764;2022-12-07T11:51:42;18.95;52.20
75964;DHT22;65820;44.726;37.764;2022-12-07T11:54:26;18.97;52.12
75964;DHT22;65820;44.726;37.764;2022-12-07T11:55:46;18.97;52.17
75964;DHT22;65820;44.726;37.764;2022-12-07T12:08:31;18.97;52.30
75964;DHT22;65820;44.726;37.764;2022-12-07T12:09:43;18.96;52.30
75964;DHT22;65820;44.726;37.764;2022-12-07T12:12:40;18.96;52.27
75964;DHT22;65820;44.726;37.764;2022-12-07T12:20:49;18.95;52.45
75964;DHT22;65820;44.726;37.764;2022-12-07T12:29:37;18.94;52.52
75964;DHT22;65820;44.726;37.764;2022-12-07T12:30:40;18.95;52.46
75964;DHT22;65820;44.726;37.764;2022-12-07T12:33:57;18.94;52.57
75964;DHT22;65820;44.726;37.764;2022-12-07T12:35:20;18.94;52.62
75964;DHT22;65820;44.726;37.764;2022-12-07T12:45:05;19.01;52.56
75964;DHT22;65820;44.726;37.764;2022-12-07T12:50:25;19.09;52.36
75964;DHT22;65820;44.726;37.764;2022-12-07T12:51:38;19.11;52.30
75964;DHT22;65820;44.726;37.764;2022-12-07T12:53:41;19.13;52.22
75964;DHT22;65820;44.726;37.764;2022-12-07T13:06:35;19.29;52.09
75964;DHT22;65820;44.726;37.764;2022-12-07T13:08:56;19.31;52.17
75964;DHT22;65820;44.726;37.764;2022-12-07T13:09:59;19.33;52.15
75964;DHT22;65820;44.726;37.764;2022-12-07T13:11:18;19.33;52.05
75964;DHT22;65820;44.726;37.764;2022-12-07T13:12:21;19.35;52.12
75964;DHT22;65820;44.726;37.764;2022-12-07T13:15:55;19.37;51.94
75964;DHT22;65820;44.726;37.764;2022-12-07T13:17:54;19.39;51.97
75964;DHT22;65820;44.726;37.764;2022-12-07T13:18:56;19.38;51.95
75964;DHT22;65820;44.726;37.764;2022-12-07T13:26:55;19.43;51.95
75964;DHT22;65820;44.726;37.764;2022-12-07T13:28:11;19.45;52.05
75964;DHT22;65820;44.726;37.764;2022-12-07T13:29:17;19.43;51.98
75964;DHT22;65820;44.726;37.764;2022-12-07T13:30:20;19.44;51.98
75964;DHT22;65820;44.726;37.764;2022-12-07T13:32:32;19.45;52.09
75964;DHT22;65820;44.726;37.764;2022-12-07T13:33:35;19.47;52.19
75964;DHT22;65820;44.726;37.764;2022-12-07T13:34:37;19.45;52.02
75964;DHT22;65820;44.726;37.764;2022-12-07T13:35:39;19.46;52.04
75964;DHT22;65820;44.726;37.764;2022-12-07T13:36:44;19.47;52.00
75964;DHT22;65820;44.726;37.764;2022-12-07T13:45:24;19.47;51.85
75964;DHT22;65820;44.726;37.764;2022-12-07T13:47:44;19.47;51.64
75964;DHT22;65820;44.726;37.764;2022-12-07T13:48:50;19.45;51.56
75964;DHT22;65820;44.726;37.764;2022-12-07T13:49:54;19.43;51.56
75964;DHT22;65820;44.726;37.764;2022-12-07T13:50:57;19.41;51.53
75964;DHT22;65820;44.726;37.764;2022-12-07T14:04:34;19.22;51.72
75964;DHT22;65820;44.726;37.764;2022-12-07T14:26:21;19.01;52.16
75964;DHT22;65820;44.726;37.764;2022-12-07T14:27:24;18.98;52.24
75964;DHT22;65820;44.726;37.764;2022-12-07T14:32:57;18.95;52.24
75964;DHT22;65820;44.726;37.764;2022-12-07T14:40:34;18.94;52.27
75964;DHT22;65820;44.726;37.764;2022-12-07T14:41:36;18.94;52.26
75964;DHT22;65820;44.726;37.764;2022-12-07T14:42:59;18.92;52.28
75964;DHT22;65820;44.726;37.764;2022-12-07T14:44:04;18.91;52.31
75964;DHT22;65820;44.726;37.764;2022-12-07T14:45:16;18.91;52.31
75964;DHT22;65820;44.726;37.764;2022-12-07T14:46:18;18.92;52.30
75964;DHT22;65820;44.726;37.764;2022-12-07T14:49:23;18.91;52.30
75964;DHT22;65820;44.726;37.764;2022-12-07T14:50:24;18.91;52.24
75964;DHT22;65820;44.726;37.764;2022-12-07T14:52:36;18.91;52.28
75964;DHT22;65820;44.726;37.764;2022-12-07T14:54:41;18.91;52.27
75964;DHT22;65820;44.726;37.764;2022-12-07T14:55:42;18.91;52.27
75964;DHT22;65820;44.726;37.764;2022-12-07T14:58:17;18.89;52.30
75964;DHT22;65820;44.726;37.764;2022-12-07T15:05:47;18.88;52.37
75964;DHT22;65820;44.726;37.764;2022-12-07T15:06:57;18.89;52.17
75964;DHT22;65820;44.726;37.764;2022-12-07T15:07:58;18.88;52.25
75964;DHT22;65820;44.726;37.764;2022-12-07T15:10:21;18.87;52.28
75964;DHT22;65820;44.726;37.764;2022-12-07T15:11:23;18.86;52.23
75964;DHT22;65820;44.726;37.764;2022-12-07T15:12:24;18.88;52.23
75964;DHT22;65820;44.726;37.764;2022-12-07T15:13:26;18.88;52.22
75964;DHT22;65820;44.726;37.764;2022-12-07T15:14:45;18.88;52.24
75964;DHT22;65820;44.726;37.764;2022-12-07T15:16:36;18.88;52.25
75964;DHT22;65820;44.726;37.764;2022-12-07T15:19:47;18.88;52.17
75964;DHT22;65820;44.726;37.764;2022-12-07T15:20:49;18.88;52.30
75964;DHT22;65820;44.726;37.764;2022-12-07T15:21:50;18.89;52.45
75964;DHT22;65820;44.726;37.764;2022-12-07T15:22:52;18.91;52.40
75964;DHT22;65820;44.726;37.764;2022-12-07T15:23:53;18.91;52.53
75964;DHT22;65820;44.726;37.764;2022-12-07T15:24:55;18.92;52.42
75964;DHT22;65820;44.726;37.764;2022-12-07T15:25:56;18.93;52.36
75964;DHT22;65820;44.726;37.764;2022-12-07T15:26:57;18.93;52.30
75964;DHT22;65820;44.726;37.764;2022-12-07T15:29:02;18.94;52.27
75964;DHT22;65820;44.726;37.764;2022-12-07T15:30:04;18.94;52.17
75964;DHT22;65820;44.726;37.764;2022-12-07T15:31:16;18.94;52.17
75964;DHT22;65820;44.726;37.764;2022-12-07T15:32:18;18.94;52.14
75964;DHT22;65820;44.726;37.764;2022-12-07T15:33:19;18.96;52.18
75964;DHT22;65820;44.726;37.764;2022-12-07T15:35:09;18.95;52.25
75964;DHT22;65820;44.726;37.764;2022-12-07T15:36:23;18.96;52.18
75964;DHT22;65820;44.726;37.764;2022-12-07T15:37:25;18.97;52.11
75964;DHT22;65820;44.726;37.764;2022-12-07T15:38:27;18.98;52.11
75964;DHT22;65820;44.726;37.764;2022-12-07T15:39:32;18.98;52.15
75964;DHT22;65820;44.726;37.764;2022-12-07T15:40:34;18.97;52.13
75964;DHT22;65820;44.726;37.764;2022-12-07T15:41:37;18.97;52.13
75964;DHT22;65820;44.726;37.764;2022-12-07T15:42:38;18.96;52.05
75964;DHT22;65820;44.726;37.764;2022-12-07T15:43:40;18.98;52.09
75964;DHT22;65820;44.726;37.764;2022-12-07T15:44:59;18.98;52.14
75964;DHT22;65820;44.726;37.764;2022-12-07T15:46:09;18.97;52.09
75964;DHT22;65820;44.726;37.764;2022-12-07T15:47:11;18.98;52.10
75964;DHT22;65820;44.726;37.764;2022-12-07T15:48:12;18.98;52.17
75964;DHT22;65820;44.726;37.764;2022-12-07T15:49:16;18.97;52.15
75964;DHT22;65820;44.726;37.764;2022-12-07T15:52:37;18.97;52.15
75964;DHT22;65820;44.726;37.764;2022-12-07T15:53:40;18.98;52.20
75964;DHT22;65820;44.726;37.764;2022-12-07T15:54:44;18.98;52.36
75964;DHT22;65820;44.726;37.764;2022-12-07T15:55:45;18.98;52.24
75964;DHT22;65820;44.726;37.764;2022-12-07T15:56:47;18.98;52.25
75964;DHT22;65820;44.726;37.764;2022-12-07T15:57:48;18.97;52.24
75964;DHT22;65820;44.726;37.764;2022-12-07T15:58:51;18.99;52.22
75964;DHT22;65820;44.726;37.764;2022-12-07T15:59:53;18.99;52.17
75964;DHT22;65820;44.726;37.764;2022-12-07T16:04:38;18.98;52.19
75964;DHT22;65820;44.726;37.764;2022-12-07T16:05:39;18.99;52.25
75964;DHT22;65820;44.726;37.764;2022-12-07T16:06:42;18.98;52.25
75964;DHT22;65820;44.726;37.764;2022-12-07T16:07:44;18.98;52.24
75964;DHT22;65820;44.726;37.764;2022-12-07T16:08:48;18.97;52.24
75964;DHT22;65820;44.726;37.764;2022-12-07T16:09:50;18.98;52.25
75964;DHT22;65820;44.726;37.764;2022-12-07T16:10:52;18.97;52.23
75964;DHT22;65820;44.726;37.764;2022-12-07T16:11:54;18.98;52.24
75964;DHT22;65820;44.726;37.764;2022-12-07T16:12:55;18.98;52.29
75964;DHT22;65820;44.726;37.764;2022-12-07T16:13:57;18.98;52.28
75964;DHT22;65820;44.726;37.764;2022-12-07T16:14:59;18.98;52.23
75964;DHT22;65820;44.726;37.764;2022-12-07T16:16:05;18.99;52.20
75964;DHT22;65820;44.726;37.764;2022-12-07T16:17:08;18.99;52.24
75964;DHT22;65820;44.726;37.764;2022-12-07T16:18:10;18.98;52.24
75964;DHT22;65820;44.726;37.764;2022-12-07T16:19:12;18.98;52.29
75964;DHT22;65820;44.726;37.764;2022-12-07T16:20:13;19.00;52.30
75964;DHT22;65820;44.726;37.764;2022-12-07T16:21:16;18.99;52.25
75964;DHT22;65820;44.726;37.764;2022-12-07T16:22:18;19.00;52.28
75964;DHT22;65820;44.726;37.764;2022-12-07T16:23:19;19.00;52.39
75964;DHT22;65820;44.726;37.764;2022-12-07T16:24:21;18.99;52.24
75964;DHT22;65820;44.726;37.764;2022-12-07T16:25:22;19.01;52.22
75964;DHT22;65820;44.726;37.764;2022-12-07T16:26:24;19.01;52.24
75964;DHT22;65820;44.726;37.764;2022-12-07T16:27:26;19.01;52.23
75964;DHT22;65820;44.726;37.764;2022-12-07T16:28:28;19.00;52.23
75964;DHT22;65820;44.726;37.764;2022-12-07T16:29:30;18.99;52.20
75964;DHT22;65820;44.726;37.764;2022-12-07T16:30:32;19.01;52.20
75964;DHT22;65820;44.726;37.764;2022-12-07T16:31:34;19.02;52.23
75964;DHT22;65820;44.726;37.764;2022-12-07T16:32:36;19.02;52.24
75964;DHT22;65820;44.726;37.764;2022-12-07T16:33:40;19.02;52.20
75964;DHT22;65820;44.726;37.764;2022-12-07T16:34:42;19.02;52.16
75964;DHT22;65820;44.726;37.764;2022-12-07T16:35:43;19.02;52.23
75964;DHT22;65820;44.726;37.764;2022-12-07T16:36:45;19.02;52.22
75964;DHT22;65820;44.726;37.764;2022-12-07T16:37:47;19.01;52.22
75964;DHT22;65820;44.726;37.764;2022-12-07T16:38:49;19.02;52.14
75964;DHT22;65820;44.726;37.764;2022-12-07T16:39:50;19.02;52.20
75964;DHT22;65820;44.726;37.764;2022-12-07T16:40:53;19.01;52.22
75964;DHT22;65820;44.726;37.764;2022-12-07T16:41:56;19.03;52.20
75964;DHT22;65820;44.726;37.764;2022-12-07T16:43:46;19.02;52.26
75964;DHT22;65820;44.726;37.764;2022-12-07T16:44:49;19.02;52.20
75964;DHT22;65820;44.726;37.764;2022-12-07T16:46:58;19.02;52.20
75964;DHT22;65820;44.726;37.764;2022-12-07T16:48:02;19.02;52.24
75964;DHT22;65820;44.726;37.764;2022-12-07T16:49:13;19.02;52.20
75964;DHT22;65820;44.726;37.764;2022-12-07T16:50:15;19.03;52.25
75964;DHT22;65820;44.726;37.764;2022-12-07T16:52:05;19.02;52.30
75964;DHT22;65820;44.726;37.764;2022-12-07T16:53:07;19.01;52.27
75964;DHT22;65820;44.726;37.764;2022-12-07T16:54:12;19.02;52.31
75964;DHT22;65820;44.726;37.764;2022-12-07T16:55:13;19.03;52.27
75964;DHT22;65820;44.726;37.764;2022-12-07T16:56:16;19.02;52.27
75964;DHT22;65820;44.726;37.764;2022-12-07T16:57:17;19.02;52.44
75964;DHT22;65820;44.726;37.764;2022-12-07T16:58:19;19.05;52.56
75964;DHT22;65820;44.726;37.764;2022-12-07T16:59:20;19.03;52.46
75964;DHT22;65820;44.726;37.764;2022-12-07T17:00:21;19.05;52.43
75964;DHT22;65820;44.726;37.764;2022-12-07T17:01:23;19.05;52.33
75964;DHT22;65820;44.726;37.764;2022-12-07T17:02:24;19.06;52.43
75964;DHT22;65820;44.726;37.764;2022-12-07T17:03:26;19.07;52.45
75964;DHT22;65820;44.726;37.764;2022-12-07T17:04:27;19.07;52.45
75964;DHT22;65820;44.726;37.764;2022-12-07T17:05:29;19.06;52.32
75964;DHT22;65820;44.726;37.764;2022-12-07T17:06:30;19.07;52.35
75964;DHT22;65820;44.726;37.764;2022-12-07T17:07:32;19.07;52.41
75964;DHT22;65820;44.726;37.764;2022-12-07T17:08:33;19.07;52.67
75964;DHT22;65820;44.726;37.764;2022-12-07T17:09:34;19.08;52.41
75964;DHT22;65820;44.726;37.764;2022-12-07T17:10:38;19.07;52.42
75964;DHT22;65820;44.726;37.764;2022-12-07T17:11:43;19.08;52.52
75964;DHT22;65820;44.726;37.764;2022-12-07T17:12:45;19.09;52.87
75964;DHT22;65820;44.726;37.764;2022-12-07T17:13:47;19.10;52.85
75964;DHT22;65820;44.726;37.764;2022-12-07T17:15:09;19.10;52.78
75964;DHT22;65820;44.726;37.764;2022-12-07T17:16:22;19.11;52.78
75964;DHT22;65820;44.726;37.764;2022-12-07T17:17:24;19.11;52.97
75964;DHT22;65820;44.726;37.764;2022-12-07T17:18:30;19.14;53.24
75964;DHT22;65820;44.726;37.764;2022-12-07T17:19:32;19.14;53.24
75964;DHT22;65820;44.726;37.764;2022-12-07T17:20:34;19.15;53.42
75964;DHT22;65820;44.726;37.764;2022-12-07T17:21:36;19.15;53.49
75964;DHT22;65820;44.726;37.764;2022-12-07T17:22:38;19.20;53.52
75964;DHT22;65820;44.726;37.764;2022-12-07T17:23:40;19.20;53.64
75964;DHT22;65820;44.726;37.764;2022-12-07T17:24:41;19.21;53.71
75964;DHT22;65820;44.726;37.764;2022-12-07T17:25:43;19.22;53.19
75964;DHT22;65820;44.726;37.764;2022-12-07T17:26:46;19.24;53.43
75964;DHT22;65820;44.726;37.764;2022-12-07T17:27:48;19.25;53.27
75964;DHT22;65820;44.726;37.764;2022-12-07T17:28:50;19.26;52.88
75964;DHT22;65820;44.726;37.764;2022-12-07T17:29:52;19.27;53.14
75964;DHT22;65820;44.726;37.764;2022-12-07T17:30:55;19.28;53.25
75964;DHT22;65820;44.726;37.764;2022-12-07T17:32:04;19.30;53.20
75964;DHT22;65820;44.726;37.764;2022-12-07T17:33:06;19.30;53.17
75964;DHT22;65820;44.726;37.764;2022-12-07T17:35:04;19.32;53.21
75964;DHT22;65820;44.726;37.764;2022-12-07T17:36:25;19.33;53.16
75964;DHT22;65820;44.726;37.764;2022-12-07T17:37:27;19.36;53.17
75964;DHT22;65820;44.726;37.764;2022-12-07T17:38:29;19.36;53.14
75964;DHT22;65820;44.726;37.764;2022-12-07T17:39:31;19.37;53.17
75964;DHT22;65820;44.726;37.764;2022-12-07T17:40:33;19.39;53.11
75964;DHT22;65820;44.726;37.764;2022-12-07T17:41:36;19.39;53.04
75964;DHT22;65820;44.726;37.764;2022-12-07T17:42:59;19.40;53.00
75964;DHT22;65820;44.726;37.764;2022-12-07T17:44:02;19.41;53.03
75964;DHT22;65820;44.726;37.764;2022-12-07T17:45:08;19.42;52.89
75964;DHT22;65820;44.726;37.764;2022-12-07T17:46:10;19.43;52.89
75964;DHT22;65820;44.726;37.764;2022-12-07T17:47:12;19.43;52.99
75964;DHT22;65820;44.726;37.764;2022-12-07T17:48:16;19.43;52.93
75964;DHT22;65820;44.726;37.764;2022-12-07T17:49:17;19.45;52.97
75964;DHT22;65820;44.726;37.764;2022-12-07T17:50:19;19.45;52.85
75964;DHT22;65820;44.726;37.764;2022-12-07T17:51:41;19.46;52.95